createdAt,value
2022-10-18T00:01:36.688Z,53.87
2022-10-18T00:04:02.409Z,53.74
2022-10-18T00:06:27.955Z,53.81
2022-10-18T00:08:53.491Z,53.98
2022-10-18T00:11:19.036Z,53.74
2022-10-18T00:13:44.576Z,53.71
2022-10-18T00:16:11.972Z,53.96
2022-10-18T00:18:37.507Z,53.75
2022-10-18T00:21:04.328Z,53.76
2022-10-18T00:23:30.093Z,53.86
2022-10-18T00:25:59.626Z,53.67
2022-10-18T00:28:25.186Z,53.75
2022-10-18T00:33:16.256Z,53.70
2022-10-18T00:35:41.805Z,53.76
2022-10-18T00:38:07.339Z,53.50
2022-10-18T00:40:32.877Z,53.68
2022-10-18T00:42:58.440Z,53.74
2022-10-18T00:45:24.014Z,53.82
2022-10-18T00:47:51.118Z,53.73
2022-10-18T00:50:16.657Z,53.76
2022-10-18T00:52:43.200Z,53.83
2022-10-18T00:55:08.789Z,53.74
2022-10-18T00:57:34.340Z,53.91
2022-10-18T00:59:59.904Z,53.77
2022-10-18T01:02:25.688Z,53.81
2022-10-18T01:04:51.236Z,53.77
2022-10-18T01:07:21.614Z,53.81
2022-10-18T01:09:59.565Z,53.74
2022-10-18T01:12:45.023Z,53.83
2022-10-18T01:15:30.448Z,53.84
2022-10-18T01:18:15.879Z,53.77
2022-10-18T01:20:50.896Z,53.79
2022-10-18T01:23:30.552Z,53.81
2022-10-18T01:26:15.979Z,53.82
2022-10-18T01:29:00.604Z,53.77
2022-10-18T01:31:43.530Z,53.55
2022-10-18T01:34:09.070Z,53.86
2022-10-18T01:36:35.376Z,53.77
2022-10-18T01:39:07.994Z,53.71
2022-10-18T01:41:33.909Z,53.68
2022-10-18T01:44:00.133Z,53.78
2022-10-18T01:46:25.705Z,53.71
2022-10-18T01:48:51.388Z,53.71
2022-10-18T01:51:19.481Z,53.62
2022-10-18T01:53:45.016Z,53.78
2022-10-18T01:56:30.448Z,53.73
2022-10-18T01:59:15.869Z,53.65
2022-10-18T02:01:52.101Z,53.73
2022-10-18T02:04:21.711Z,53.43
2022-10-18T02:06:47.332Z,53.77
2022-10-18T02:09:14.638Z,53.71
2022-10-18T02:11:40.193Z,53.66
2022-10-18T02:14:06.855Z,53.68
2022-10-18T02:16:37.156Z,53.59
2022-10-18T02:19:12.199Z,53.73
2022-10-18T02:21:37.840Z,53.71
2022-10-18T02:24:03.428Z,53.74
2022-10-18T02:26:28.980Z,53.76
2022-10-18T02:28:54.520Z,53.83
2022-10-18T02:31:26.330Z,53.73
2022-10-18T02:34:11.764Z,53.62
2022-10-18T02:36:38.257Z,53.84
2022-10-18T02:39:05.369Z,53.62
2022-10-18T02:41:30.921Z,53.74
2022-10-18T02:43:56.460Z,53.61
2022-10-18T02:46:22.151Z,53.75
2022-10-18T02:48:47.746Z,53.65
2022-10-18T02:51:13.440Z,53.68
2022-10-18T02:53:38.986Z,53.83
2022-10-18T02:56:04.610Z,53.75
2022-10-18T02:58:30.160Z,53.60
2022-10-18T03:00:55.749Z,53.70
2022-10-18T03:03:21.304Z,53.83
2022-10-18T03:05:50.233Z,53.73
2022-10-18T03:08:15.783Z,53.78
2022-10-18T03:10:44.683Z,53.64
2022-10-18T03:13:10.247Z,53.68
2022-10-18T03:15:36.244Z,53.61
2022-10-18T03:18:01.799Z,53.63
2022-10-18T03:20:27.347Z,53.61
2022-10-18T03:22:52.905Z,53.65
2022-10-18T03:25:18.446Z,53.58
2022-10-18T03:27:43.996Z,53.56
2022-10-18T03:30:10.963Z,53.76
2022-10-18T03:32:37.153Z,53.73
2022-10-18T03:35:03.179Z,53.65
2022-10-18T03:37:29.032Z,53.80
2022-10-18T03:39:54.568Z,53.61
2022-10-18T03:42:20.124Z,53.71
2022-10-18T03:44:45.667Z,53.68
2022-10-18T03:47:11.564Z,53.58
2022-10-18T03:49:37.106Z,53.64
2022-10-18T03:52:02.663Z,53.63
2022-10-18T03:54:28.197Z,53.64
2022-10-18T03:56:53.744Z,53.72
2022-10-18T03:59:19.286Z,53.52
2022-10-18T04:01:44.859Z,53.59
2022-10-18T04:04:10.417Z,53.59
2022-10-18T04:06:35.964Z,53.68
2022-10-18T04:09:03.187Z,53.50
2022-10-18T04:11:30.871Z,53.66
2022-10-18T04:13:56.414Z,53.54
2022-10-18T04:16:21.971Z,53.52
2022-10-18T04:18:47.511Z,53.68
2022-10-18T04:21:13.112Z,53.61
2022-10-18T04:23:39.036Z,53.59
2022-10-18T04:26:04.705Z,53.48
2022-10-18T04:28:30.289Z,53.71
2022-10-18T04:30:55.873Z,53.54
2022-10-18T04:33:21.433Z,53.73
2022-10-18T04:35:46.972Z,53.68
2022-10-18T04:38:13.549Z,53.47
2022-10-18T04:40:39.109Z,53.53
2022-10-18T04:43:04.660Z,53.58
2022-10-18T04:45:30.248Z,53.53
2022-10-18T04:47:55.796Z,53.58
2022-10-18T04:50:21.332Z,53.51
2022-10-18T04:52:46.915Z,53.62
2022-10-18T04:55:12.492Z,53.46
2022-10-18T04:57:38.041Z,53.49
2022-10-18T05:00:03.988Z,53.60
2022-10-18T05:02:29.691Z,53.47
2022-10-18T05:04:55.429Z,53.56
2022-10-18T05:07:20.985Z,53.56
2022-10-18T05:09:46.531Z,53.54
2022-10-18T05:12:12.086Z,53.69
2022-10-18T05:14:37.620Z,53.56
2022-10-18T05:17:03.169Z,53.70
2022-10-18T05:19:28.717Z,53.66
2022-10-18T05:21:54.264Z,53.58
2022-10-18T05:24:21.911Z,53.61
2022-10-18T05:26:49.736Z,53.75
2022-10-18T05:29:15.389Z,53.55
2022-10-18T05:31:41.048Z,53.63
2022-10-18T05:34:06.596Z,53.54
2022-10-18T05:36:32.145Z,53.61
2022-10-18T05:39:00.967Z,58.39
2022-10-18T05:41:29.810Z,57.39
2022-10-18T05:43:55.344Z,57.76
2022-10-18T05:46:20.900Z,58.78
2022-10-18T05:48:50.244Z,59.08
2022-10-18T05:51:16.021Z,56.96
2022-10-18T05:53:41.575Z,56.44
2022-10-18T05:56:07.239Z,56.23
2022-10-18T05:58:32.912Z,56.04
2022-10-18T06:01:00.044Z,55.81
2022-10-18T06:03:26.766Z,55.72
2022-10-18T06:05:52.529Z,55.81
2022-10-18T06:08:18.089Z,55.70
2022-10-18T06:10:43.624Z,55.65
2022-10-18T06:13:09.185Z,55.62
2022-10-18T06:15:34.732Z,58.67
2022-10-18T06:18:00.284Z,56.80
2022-10-18T06:20:25.865Z,56.17
2022-10-18T06:22:52.500Z,56.01
2022-10-18T06:25:18.032Z,55.94
2022-10-18T06:27:43.580Z,55.79
2022-10-18T06:30:09.262Z,55.87
2022-10-18T06:32:34.819Z,55.74
2022-10-18T06:35:00.372Z,55.67
2022-10-18T06:37:28.211Z,55.76
2022-10-18T06:39:53.792Z,55.57
2022-10-18T06:42:21.893Z,55.65
2022-10-18T06:44:49.032Z,60.97
2022-10-18T06:47:14.587Z,59.50
2022-10-18T06:49:40.128Z,57.71
2022-10-18T06:52:06.510Z,57.17
2022-10-18T06:54:32.321Z,56.79
2022-10-18T06:56:57.973Z,56.92
2022-10-18T06:59:25.206Z,56.84
2022-10-18T07:01:53.196Z,56.91
2022-10-18T07:04:18.803Z,56.71
2022-10-18T07:06:44.365Z,57.26
2022-10-18T07:09:09.913Z,56.61
2022-10-18T07:11:35.467Z,57.48
2022-10-18T07:14:02.408Z,57.91
2022-10-18T07:16:28.005Z,57.13
2022-10-18T07:18:53.546Z,57.98
2022-10-18T07:21:19.988Z,58.44
2022-10-18T07:23:45.810Z,57.84
2022-10-18T07:26:13.861Z,58.10
2022-10-18T07:28:39.451Z,57.81
2022-10-18T07:31:06.242Z,61.71
2022-10-18T07:33:32.101Z,60.24
2022-10-18T07:36:02.069Z,59.68
2022-10-18T07:38:27.616Z,59.26
2022-10-18T07:40:57.699Z,58.96
2022-10-18T07:43:23.264Z,58.45
2022-10-18T07:45:52.343Z,58.31
2022-10-18T07:48:17.905Z,58.56
2022-10-18T07:50:43.452Z,58.59
2022-10-18T07:53:09.002Z,58.55
2022-10-18T07:55:34.553Z,58.19
2022-10-18T07:58:00.420Z,58.16
2022-10-18T08:00:25.958Z,57.96
2022-10-18T08:02:58.671Z,57.96
2022-10-18T08:05:25.912Z,57.85
2022-10-18T08:07:51.640Z,57.98
2022-10-18T08:10:17.226Z,57.05
2022-10-18T08:12:42.791Z,58.46
2022-10-18T08:15:08.456Z,58.20
2022-10-18T08:17:34.423Z,57.80
2022-10-18T08:20:12.641Z,58.07
2022-10-18T08:22:48.705Z,59.67
2022-10-18T08:25:14.693Z,58.67
2022-10-18T08:27:40.263Z,58.78
2022-10-18T08:30:08.390Z,58.91
2022-10-18T08:32:34.686Z,59.48
2022-10-18T08:35:02.235Z,59.29
2022-10-18T08:37:30.261Z,59.84
2022-10-18T08:39:56.186Z,63.42
2022-10-18T08:42:26.478Z,61.12
2022-10-18T08:44:52.028Z,61.25
2022-10-18T08:47:18.458Z,60.98
2022-10-18T08:49:47.261Z,60.81
2022-10-18T08:52:15.699Z,60.10
2022-10-18T08:54:44.419Z,60.01
2022-10-18T08:57:12.352Z,59.96
2022-10-18T08:59:38.362Z,60.00
2022-10-18T09:02:10.397Z,60.15
2022-10-18T09:04:39.829Z,59.93
2022-10-18T09:07:25.581Z,59.69
2022-10-18T09:09:54.148Z,59.34
2022-10-18T09:12:25.879Z,59.35
2022-10-18T09:14:54.977Z,59.51
2022-10-18T09:17:40.411Z,59.22
2022-10-18T09:20:25.836Z,59.28
2022-10-18T09:22:52.960Z,59.04
2022-10-18T09:25:29.140Z,59.06
2022-10-18T09:27:56.746Z,59.17
2022-10-18T09:30:25.920Z,58.92
2022-10-18T09:33:11.361Z,58.76
2022-10-18T09:35:39.140Z,59.03
2022-10-18T09:38:05.156Z,59.16
2022-10-18T09:40:32.305Z,59.08
2022-10-18T09:42:58.913Z,59.06
2022-10-18T09:45:26.192Z,58.88
2022-10-18T09:47:56.653Z,59.07
2022-10-18T09:50:24.974Z,58.92
2022-10-18T09:52:53.609Z,58.80
2022-10-18T09:55:20.613Z,58.35
2022-10-18T09:57:48.044Z,58.98
2022-10-18T10:00:14.865Z,58.39
2022-10-18T10:02:40.588Z,58.23
2022-10-18T10:05:08.738Z,59.10
2022-10-18T10:07:35.335Z,58.77
2022-10-18T10:10:05.930Z,58.96
2022-10-18T10:12:32.673Z,58.96
2022-10-18T10:15:18.417Z,59.11
2022-10-18T10:17:44.911Z,58.68
2022-10-18T10:20:14.794Z,58.90
2022-10-18T10:22:40.821Z,58.02
2022-10-18T10:25:06.492Z,58.65
2022-10-18T10:27:33.997Z,58.10
2022-10-18T10:30:06.533Z,58.16
2022-10-18T10:32:43.842Z,58.45
2022-10-18T10:35:41.543Z,57.87
2022-10-18T10:38:21.725Z,57.77
2022-10-18T10:40:49.406Z,61.65
2022-10-18T10:43:33.139Z,61.16
2022-10-18T10:46:03.599Z,60.57
2022-10-18T10:48:33.393Z,60.26
2022-10-18T10:51:06.748Z,60.10
2022-10-18T10:53:34.342Z,60.27
2022-10-18T10:55:59.988Z,59.24
2022-10-18T10:58:26.201Z,59.51
2022-10-18T11:00:51.753Z,59.67
2022-10-18T11:03:28.382Z,59.61
2022-10-18T11:05:54.763Z,59.37
2022-10-18T11:08:24.019Z,59.50
2022-10-18T11:10:54.252Z,59.53
2022-10-18T11:13:29.348Z,60.87
2022-10-18T11:15:56.811Z,60.11
2022-10-18T11:18:30.794Z,59.76
2022-10-18T11:21:07.206Z,59.55
2022-10-18T11:23:33.793Z,59.46
2022-10-18T11:26:19.231Z,59.42
2022-10-18T11:28:55.758Z,59.36
2022-10-18T11:31:40.623Z,59.28
2022-10-18T11:34:13.109Z,58.99
2022-10-18T11:37:25.884Z,59.01
2022-10-18T11:39:53.251Z,59.59
2022-10-18T11:42:25.756Z,59.16
2022-10-18T11:44:56.253Z,59.23
2022-10-18T11:47:24.992Z,59.13
2022-10-18T11:49:54.703Z,59.35
2022-10-18T11:52:26.417Z,59.24
2022-10-18T11:55:11.867Z,58.93
2022-10-18T11:57:47.304Z,59.07
2022-10-18T12:00:32.748Z,58.83
2022-10-18T12:03:15.022Z,58.89
2022-10-18T12:05:40.757Z,58.99
2022-10-18T12:08:07.283Z,58.78
2022-10-18T12:10:45.826Z,58.31
2022-10-18T12:13:22.183Z,58.64
2022-10-18T12:15:47.732Z,58.52
2022-10-18T12:18:14.287Z,58.54
2022-10-18T12:20:44.924Z,58.48
2022-10-18T12:23:13.658Z,58.54
2022-10-18T12:25:39.848Z,58.41
2022-10-18T12:28:25.290Z,58.68
2022-10-18T12:30:53.599Z,58.44
2022-10-18T12:33:28.247Z,58.39
2022-10-18T12:36:00.222Z,58.30
2022-10-18T12:38:26.652Z,58.37
2022-10-18T12:40:52.542Z,58.23
2022-10-18T12:43:20.390Z,58.09
2022-10-18T12:45:48.556Z,58.30
2022-10-18T12:48:26.886Z,58.41
2022-10-18T12:50:57.189Z,58.40
2022-10-18T12:53:25.822Z,58.23
2022-10-18T12:55:51.684Z,58.30
2022-10-18T12:58:25.308Z,58.04
2022-10-18T13:00:51.988Z,57.76
2022-10-18T13:05:56.011Z,57.71
2022-10-18T13:08:38.580Z,57.64
2022-10-18T13:16:45.372Z,57.34
2022-10-18T13:19:30.806Z,57.34
2022-10-18T13:22:07.127Z,57.34
2022-10-18T13:24:41.699Z,57.13
2022-10-18T13:27:34.861Z,57.03
2022-10-18T13:30:09.749Z,57.08
2022-10-18T13:32:36.352Z,57.12
2022-10-18T13:35:02.084Z,56.98
2022-10-18T13:37:28.447Z,57.16
2022-10-18T13:40:13.867Z,56.92
2022-10-18T13:42:39.416Z,56.96
2022-10-18T13:45:24.862Z,56.87
2022-10-18T13:47:50.419Z,56.99
2022-10-18T13:53:11.052Z,56.96
2022-10-18T13:55:56.547Z,57.16
2022-10-18T13:58:48.788Z,57.25
2022-10-18T14:01:27.220Z,57.12
2022-10-18T14:04:06.876Z,57.06
2022-10-18T14:06:36.412Z,56.56
2022-10-18T14:09:14.118Z,56.92
2022-10-18T14:12:11.516Z,56.64
2022-10-18T14:14:40.602Z,56.95
2022-10-18T14:17:26.054Z,56.61
2022-10-18T14:19:53.707Z,56.47
2022-10-18T14:22:20.447Z,56.27
2022-10-18T14:24:46.656Z,56.50
2022-10-18T14:27:16.320Z,56.32
2022-10-18T14:29:41.948Z,56.57
2022-10-18T14:32:08.600Z,56.59
2022-10-18T14:34:34.142Z,56.57
2022-10-18T14:36:59.696Z,56.58
2022-10-18T14:39:26.648Z,56.25
2022-10-18T14:41:52.873Z,56.65
2022-10-18T14:44:20.386Z,56.21
2022-10-18T14:47:02.322Z,56.20
2022-10-18T14:49:27.920Z,56.11
2022-10-18T14:51:55.315Z,56.13
2022-10-18T14:54:24.970Z,56.08
2022-10-18T14:56:53.104Z,56.01
2022-10-18T14:59:20.362Z,57.25
2022-10-18T15:02:01.628Z,56.89
2022-10-18T15:04:34.686Z,57.58
2022-10-18T15:07:02.309Z,56.80
2022-10-18T15:11:56.899Z,56.79
2022-10-18T15:14:22.571Z,56.82
2022-10-18T15:16:48.204Z,56.75
2022-10-18T15:19:16.465Z,56.69
2022-10-18T15:21:49.127Z,56.80
2022-10-18T15:24:18.392Z,56.77
2022-10-18T15:26:43.946Z,56.78
2022-10-18T15:29:14.394Z,56.57
2022-10-18T15:31:42.053Z,56.68
2022-10-18T15:34:08.389Z,56.49
2022-10-18T15:36:35.140Z,56.05
2022-10-18T15:39:04.849Z,55.29
2022-10-18T15:41:38.911Z,56.32
2022-10-18T15:44:09.068Z,55.75
2022-10-18T15:46:37.905Z,56.37
2022-10-18T15:49:23.360Z,56.46
2022-10-18T15:51:49.512Z,56.35
2022-10-18T15:54:18.275Z,58.64
2022-10-18T15:56:44.018Z,57.17
2022-10-18T15:59:31.312Z,59.39
2022-10-18T16:01:56.949Z,56.55
2022-10-18T16:04:24.734Z,57.35
2022-10-18T16:06:50.292Z,56.79
2022-10-18T16:09:17.198Z,56.55
2022-10-18T16:11:42.759Z,56.88
2022-10-18T16:14:08.312Z,56.47
2022-10-18T16:16:33.880Z,56.72
2022-10-18T16:18:59.439Z,56.92
2022-10-18T16:21:26.207Z,56.96
2022-10-18T16:23:51.759Z,57.05
2022-10-18T16:26:17.633Z,57.68
2022-10-18T16:28:43.398Z,57.81
2022-10-18T16:31:09.788Z,60.79
2022-10-18T16:33:36.157Z,58.89
2022-10-18T16:36:03.751Z,59.66
2022-10-18T16:38:32.878Z,58.03
2022-10-18T16:41:01.683Z,60.01
2022-10-18T16:43:27.235Z,57.86
2022-10-18T16:45:52.776Z,57.71
2022-10-18T16:48:19.163Z,59.44
2022-10-18T16:50:44.750Z,59.34
2022-10-18T16:53:10.609Z,60.73
2022-10-18T16:55:36.929Z,58.52
2022-10-18T16:58:02.488Z,60.99
2022-10-18T17:00:28.091Z,60.98
2022-10-18T17:02:53.652Z,60.73
2022-10-18T17:05:19.331Z,58.21
2022-10-18T17:07:45.648Z,59.32
2022-10-18T17:10:11.957Z,59.20
2022-10-18T17:12:37.508Z,58.42
2022-10-18T17:15:03.313Z,58.75
2022-10-18T17:17:28.873Z,60.04
2022-10-18T17:19:54.992Z,60.27
2022-10-18T17:22:20.759Z,59.93
2022-10-18T17:24:46.313Z,59.77
2022-10-18T17:27:11.867Z,60.19
2022-10-18T17:29:37.412Z,60.11
2022-10-18T17:32:03.049Z,60.29
2022-10-18T17:34:28.663Z,60.11
2022-10-18T17:36:55.014Z,59.49
2022-10-18T17:39:20.632Z,59.18
2022-10-18T17:41:46.184Z,60.02
2022-10-18T17:44:11.736Z,59.58
2022-10-18T17:46:37.299Z,59.92
2022-10-18T17:49:02.839Z,59.54
2022-10-18T17:51:28.384Z,59.83
2022-10-18T17:53:53.937Z,59.44
2022-10-18T17:56:19.487Z,60.03
2022-10-18T17:58:46.099Z,59.80
2022-10-18T18:01:12.764Z,59.43
2022-10-18T18:03:38.593Z,59.69
2022-10-18T18:06:29.925Z,59.70
2022-10-18T18:08:55.592Z,59.72
2022-10-18T18:11:21.141Z,59.59
2022-10-18T18:13:46.690Z,59.72
2022-10-18T18:16:12.963Z,59.36
2022-10-18T18:18:38.512Z,59.35
2022-10-18T18:21:04.047Z,59.59
2022-10-18T18:23:29.593Z,58.98
2022-10-18T18:25:56.360Z,59.06
2022-10-18T18:28:21.908Z,58.36
2022-10-18T18:30:47.445Z,58.32
2022-10-18T18:33:12.991Z,58.59
2022-10-18T18:35:38.525Z,58.65
2022-10-18T18:40:34.568Z,58.97
2022-10-18T18:43:07.174Z,58.29
2022-10-18T18:45:37.819Z,59.14
2022-10-18T18:48:03.373Z,58.85
2022-10-18T18:50:30.968Z,58.98
2022-10-18T18:52:58.154Z,58.74
2022-10-18T18:55:23.947Z,59.16
2022-10-18T18:57:49.499Z,58.81
2022-10-18T19:00:15.037Z,58.51
2022-10-18T19:02:40.587Z,58.36
2022-10-18T19:05:06.287Z,58.62
2022-10-18T19:07:34.160Z,58.92
2022-10-18T19:09:59.879Z,58.52
2022-10-18T19:12:25.431Z,58.12
2022-10-18T19:14:50.982Z,57.33
2022-10-18T19:17:16.632Z,57.92
2022-10-18T19:19:42.685Z,58.30
2022-10-18T19:22:09.913Z,56.96
2022-10-18T19:24:35.554Z,58.23
2022-10-18T19:27:02.218Z,58.09
2022-10-18T19:29:29.579Z,58.14
2022-10-18T19:31:56.313Z,58.73
2022-10-18T19:34:22.239Z,58.43
2022-10-18T19:36:48.516Z,57.34
2022-10-18T19:39:15.381Z,57.79
2022-10-18T19:41:40.934Z,58.65
2022-10-18T19:44:06.512Z,57.09
2022-10-18T19:46:32.056Z,57.71
2022-10-18T19:48:57.859Z,58.25
2022-10-18T19:51:27.044Z,57.07
2022-10-18T19:53:53.645Z,57.09
2022-10-18T19:56:20.535Z,56.83
2022-10-18T19:58:46.268Z,58.03
2022-10-18T20:01:11.938Z,56.75
2022-10-18T20:03:37.509Z,56.54
2022-10-18T20:06:03.051Z,56.86
2022-10-18T20:08:31.067Z,56.49
2022-10-18T20:10:59.768Z,56.53
2022-10-18T20:13:25.632Z,56.69
2022-10-18T20:15:51.311Z,56.50
2022-10-18T20:18:17.120Z,56.38
2022-10-18T20:20:45.824Z,56.29
2022-10-18T20:23:14.019Z,56.28
2022-10-18T20:25:39.555Z,56.27
2022-10-18T20:28:05.178Z,56.29
2022-10-18T20:30:30.716Z,56.26
2022-10-18T20:32:56.268Z,56.21
2022-10-18T20:35:21.817Z,56.27
2022-10-18T20:37:47.359Z,56.28
2022-10-18T20:40:12.893Z,56.22
2022-10-18T20:42:38.455Z,56.15
2022-10-18T20:45:06.444Z,56.18
2022-10-18T20:47:32.757Z,56.14
2022-10-18T20:49:58.438Z,56.15
2022-10-18T20:52:24.110Z,56.11
2022-10-18T20:54:49.644Z,56.28
2022-10-18T20:57:15.200Z,56.22
2022-10-18T20:59:40.747Z,56.17
2022-10-18T21:02:06.305Z,56.07
2022-10-18T21:04:31.847Z,55.97
2022-10-18T21:06:59.648Z,56.25
2022-10-18T21:09:25.196Z,56.16
2022-10-18T21:11:50.744Z,56.15
2022-10-18T21:14:18.346Z,56.19
2022-10-18T21:16:44.341Z,56.14
2022-10-18T21:19:11.399Z,56.06
2022-10-18T21:21:36.948Z,56.12
2022-10-18T21:24:05.496Z,56.09
2022-10-18T21:26:33.420Z,56.22
2022-10-18T21:28:59.350Z,56.17
2022-10-18T21:31:25.687Z,56.11
2022-10-18T21:33:52.093Z,56.07
2022-10-18T21:36:17.629Z,56.08
2022-10-18T21:38:43.663Z,56.11
2022-10-18T21:41:09.736Z,56.08
2022-10-18T21:43:36.027Z,56.05
2022-10-18T21:46:01.719Z,56.07
2022-10-18T21:48:27.338Z,56.07
2022-10-18T21:50:53.035Z,56.06
2022-10-18T21:53:18.636Z,56.04
2022-10-18T21:55:44.179Z,55.97
2022-10-18T21:58:09.757Z,56.14
2022-10-18T22:00:35.329Z,56.04
2022-10-18T22:03:08.315Z,56.15
2022-10-18T22:05:33.856Z,55.97
2022-10-18T22:07:59.407Z,56.07
2022-10-18T22:10:24.943Z,55.98
2022-10-18T22:12:50.505Z,56.03
2022-10-18T22:15:16.033Z,56.04
2022-10-18T22:17:41.580Z,55.99
2022-10-18T22:20:07.380Z,56.03
2022-10-18T22:22:32.937Z,55.95
2022-10-18T22:24:58.482Z,55.97
2022-10-18T22:27:24.027Z,55.91
2022-10-18T22:29:49.563Z,56.00
2022-10-18T22:32:15.120Z,55.99
2022-10-18T22:34:40.660Z,56.02
2022-10-18T22:37:06.211Z,56.03
2022-10-18T22:39:31.755Z,55.99
2022-10-18T22:41:57.295Z,56.02
2022-10-18T22:44:22.866Z,55.84
2022-10-18T22:46:48.409Z,55.93
2022-10-18T22:49:13.966Z,55.90
2022-10-18T22:51:39.588Z,55.99
2022-10-18T22:54:05.189Z,55.93
2022-10-18T22:56:30.735Z,55.91
2022-10-18T22:58:56.293Z,55.86
2022-10-18T23:01:22.371Z,55.94
2022-10-18T23:03:51.647Z,55.89
2022-10-18T23:06:19.935Z,55.86
2022-10-18T23:08:45.485Z,55.97
2022-10-18T23:11:11.024Z,55.85
2022-10-18T23:13:39.488Z,55.81
2022-10-18T23:16:05.439Z,55.77
2022-10-18T23:18:31.706Z,55.93
2022-10-18T23:21:05.688Z,55.76
2022-10-18T23:23:34.572Z,55.87
2022-10-18T23:26:00.991Z,55.92
2022-10-18T23:28:26.612Z,55.93
2022-10-18T23:30:52.187Z,55.92
2022-10-18T23:33:17.755Z,55.79
2022-10-18T23:35:43.297Z,55.70
2022-10-18T23:38:08.848Z,55.87
2022-10-18T23:40:34.392Z,55.91
2022-10-18T23:42:59.944Z,55.89
2022-10-18T23:45:25.490Z,55.78
2022-10-18T23:47:51.044Z,55.84
2022-10-18T23:50:16.580Z,55.80
2022-10-18T23:52:42.130Z,55.79
2022-10-18T23:55:07.714Z,55.75
2022-10-18T23:57:33.569Z,55.79
2022-10-18T23:59:59.363Z,55.78
